createdAt,value
2017-05-12T00:00:20.500Z,4
2017-05-12T00:01:20.762Z,4
2017-05-12T00:02:20.770Z,4
2017-05-12T00:03:20.478Z,4
2017-05-12T00:04:20.878Z,4
2017-05-12T00:05:20.894Z,4
2017-05-12T00:06:20.486Z,4
2017-05-12T00:07:20.804Z,4
2017-05-12T00:08:20.815Z,4
2017-05-12T00:09:20.823Z,4
2017-05-12T00:10:20.515Z,4
2017-05-12T00:11:20.890Z,4
2017-05-12T00:12:20.532Z,4
2017-05-12T00:13:20.595Z,4
2017-05-12T00:14:20.854Z,4
2017-05-12T00:15:20.606Z,4
2017-05-12T00:16:20.871Z,4
2017-05-12T00:17:20.921Z,4
2017-05-12T00:18:20.574Z,4
2017-05-12T00:19:20.582Z,4
2017-05-12T00:20:20.898Z,4
2017-05-12T00:21:20.904Z,4
2017-05-12T00:22:20.596Z,4
2017-05-12T00:23:20.919Z,4
2017-05-12T00:24:20.977Z,4
2017-05-12T00:25:20.927Z,4
2017-05-12T00:26:20.948Z,4
2017-05-12T00:27:20.944Z,4
2017-05-12T00:28:20.643Z,4
2017-05-12T00:29:20.957Z,4
2017-05-12T00:30:20.964Z,4
2017-05-12T00:31:20.713Z,4
2017-05-12T00:32:20.980Z,4
2017-05-12T00:33:21.038Z,4
2017-05-12T00:34:20.995Z,4
2017-05-12T00:35:20.995Z,4
2017-05-12T00:36:20.694Z,4
2017-05-12T00:37:20.703Z,4
2017-05-12T00:38:21.023Z,4
2017-05-12T00:39:20.719Z,4
2017-05-12T00:40:21.035Z,4
2017-05-12T00:41:21.129Z,4
2017-05-12T00:42:20.430Z,4
2017-05-12T00:43:20.803Z,4
2017-05-12T00:44:20.752Z,4
2017-05-12T00:45:21.066Z,4
2017-05-12T00:46:21.082Z,4
2017-05-12T00:47:21.131Z,4
2017-05-12T00:48:21.101Z,4
2017-05-12T00:49:21.148Z,4
2017-05-12T00:50:20.792Z,4
2017-05-12T00:51:20.802Z,4
2017-05-12T00:52:21.123Z,4
2017-05-12T00:53:21.124Z,4
2017-05-12T00:54:20.875Z,4
2017-05-12T00:55:20.830Z,4
2017-05-12T00:56:21.146Z,4
2017-05-12T00:57:21.198Z,4
2017-05-12T00:58:20.852Z,4
2017-05-12T00:59:21.172Z,4
2017-05-12T01:00:21.188Z,4
2017-05-12T01:01:21.180Z,4
2017-05-12T01:02:21.240Z,4
2017-05-12T01:03:21.247Z,4
2017-05-12T01:04:20.585Z,4
2017-05-12T01:05:20.994Z,4
2017-05-12T01:06:20.912Z,4
2017-05-12T01:07:20.909Z,4
2017-05-12T01:08:21.234Z,4
2017-05-12T01:09:21.239Z,4
2017-05-12T01:10:21.245Z,4
2017-05-12T01:11:21.348Z,4
2017-05-12T01:12:21.261Z,4
2017-05-12T01:13:21.318Z,4
2017-05-12T01:14:21.010Z,4
2017-05-12T01:15:21.276Z,4
2017-05-12T01:16:21.290Z,4
2017-05-12T01:17:21.290Z,4
2017-05-12T01:18:21.318Z,4
2017-05-12T01:19:20.997Z,4
2017-05-12T01:20:21.000Z,4
2017-05-12T01:21:21.326Z,4
2017-05-12T01:22:21.375Z,4
2017-05-12T01:23:21.384Z,4
2017-05-12T01:24:21.390Z,4
2017-05-12T01:25:21.347Z,4
2017-05-12T01:26:21.096Z,4
2017-05-12T01:27:21.360Z,4
2017-05-12T01:28:21.058Z,4
2017-05-12T01:29:21.536Z,4
2017-05-12T01:30:21.068Z,4
2017-05-12T01:31:21.075Z,4
2017-05-12T01:32:21.086Z,4
2017-05-12T01:33:20.846Z,4
2017-05-12T01:34:21.100Z,4
2017-05-12T01:35:21.461Z,4
2017-05-12T01:36:21.425Z,4
2017-05-12T01:37:21.424Z,4
2017-05-12T01:38:21.435Z,4
2017-05-12T01:39:21.132Z,4
2017-05-12T01:40:21.186Z,4
2017-05-12T01:41:21.456Z,4
2017-05-12T01:42:21.466Z,4
2017-05-12T01:43:21.570Z,4
2017-05-12T01:44:21.479Z,4
2017-05-12T01:45:21.482Z,4
2017-05-12T01:46:21.540Z,4
2017-05-12T01:47:21.190Z,4
2017-05-12T01:48:21.245Z,4
2017-05-12T01:49:21.517Z,4
2017-05-12T01:50:21.307Z,4
2017-05-12T01:51:21.268Z,4
2017-05-12T01:52:21.585Z,4
2017-05-12T01:53:21.230Z,4
2017-05-12T01:54:21.606Z,4
2017-05-12T01:55:21.610Z,4
2017-05-12T01:56:21.562Z,4
2017-05-12T01:57:21.561Z,4
2017-05-12T01:58:21.572Z,4
2017-05-12T01:59:21.632Z,4
2017-05-12T02:00:21.699Z,4
2017-05-12T02:01:21.283Z,4
2017-05-12T02:02:21.338Z,4
2017-05-12T02:03:21.705Z,4
2017-05-12T02:04:21.616Z,4
2017-05-12T02:05:21.723Z,4
2017-05-12T02:06:21.677Z,4
2017-05-12T02:07:21.325Z,4
2017-05-12T02:08:21.330Z,4
2017-05-12T02:09:21.338Z,4
2017-05-12T02:10:21.655Z,4
2017-05-12T02:11:21.659Z,4
2017-05-12T02:12:21.674Z,4
2017-05-12T02:13:20.846Z,4
2017-05-12T02:14:21.430Z,4
2017-05-12T02:15:21.070Z,4
2017-05-12T02:16:21.386Z,4
2017-05-12T02:17:21.763Z,4
2017-05-12T02:18:21.403Z,4
2017-05-12T02:19:21.773Z,4
2017-05-12T02:20:21.717Z,4
2017-05-12T02:21:21.438Z,4
2017-05-12T02:22:21.113Z,4
2017-05-12T02:23:21.741Z,4
2017-05-12T02:24:21.902Z,4
2017-05-12T02:25:21.754Z,4
2017-05-12T02:26:21.459Z,4
2017-05-12T02:27:21.458Z,4
2017-05-12T02:28:21.157Z,4
2017-05-12T02:29:21.838Z,4
2017-05-12T02:30:21.529Z,4
2017-05-12T02:31:21.488Z,4
2017-05-12T02:32:21.547Z,4
2017-05-12T02:33:21.911Z,4
2017-05-12T02:34:21.819Z,4
2017-05-12T02:35:21.825Z,4
2017-05-12T02:36:21.211Z,4
2017-05-12T02:37:21.527Z,4
2017-05-12T02:38:21.845Z,4
2017-05-12T02:39:21.851Z,4
2017-05-12T02:40:21.845Z,4
2017-05-12T02:41:21.866Z,4
2017-05-12T02:42:21.560Z,4
2017-05-12T02:43:21.882Z,4
2017-05-12T02:44:21.577Z,4
2017-05-12T02:45:21.685Z,4
2017-05-12T02:46:21.951Z,4
2017-05-12T02:47:21.596Z,4
2017-05-12T02:48:21.926Z,4
2017-05-12T02:49:21.971Z,4
2017-05-12T02:50:21.621Z,4
2017-05-12T02:51:21.681Z,4
2017-05-12T02:52:21.630Z,4
2017-05-12T02:53:21.686Z,4
2017-05-12T02:54:21.644Z,4
2017-05-12T02:55:21.649Z,4
2017-05-12T02:56:21.345Z,4
2017-05-12T02:57:21.762Z,4
2017-05-12T02:58:21.675Z,4
2017-05-12T02:59:21.681Z,4
2017-05-12T03:00:21.989Z,4
2017-05-12T03:01:21.432Z,4
2017-05-12T03:02:22.070Z,4
2017-05-12T03:03:22.066Z,4
2017-05-12T03:04:21.715Z,4
2017-05-12T03:05:21.717Z,4
2017-05-12T03:06:22.036Z,4
2017-05-12T03:07:21.731Z,4
2017-05-12T03:08:22.098Z,4
2017-05-12T03:09:22.059Z,4
2017-05-12T03:10:21.749Z,4
2017-05-12T03:11:22.077Z,4
2017-05-12T03:12:22.133Z,4
2017-05-12T03:13:21.775Z,4
2017-05-12T03:14:21.796Z,4
2017-05-12T03:15:22.092Z,4
2017-05-12T03:16:21.790Z,4
2017-05-12T03:17:22.107Z,4
2017-05-12T03:18:22.117Z,4
2017-05-12T03:19:22.121Z,4
2017-05-12T03:20:22.131Z,4
2017-05-12T03:21:21.882Z,4
2017-05-12T03:22:22.147Z,4
2017-05-12T03:23:22.200Z,4
2017-05-12T03:24:22.159Z,4
2017-05-12T03:25:21.598Z,4
2017-05-12T03:26:21.914Z,4
2017-05-12T03:27:21.870Z,4
2017-05-12T03:28:22.182Z,0
2017-05-12T03:29:22.246Z,0
2017-05-12T03:30:21.887Z,4
2017-05-12T03:31:22.208Z,4
2017-05-12T03:32:21.900Z,4
2017-05-12T03:33:21.908Z,4
2017-05-12T03:34:22.226Z,4
2017-05-12T03:35:22.237Z,4
2017-05-12T03:36:22.237Z,4
2017-05-12T03:37:21.983Z,4
2017-05-12T03:38:22.260Z,4
2017-05-12T03:39:21.636Z,8
2017-05-12T03:40:22.265Z,8
2017-05-12T03:41:21.958Z,8
2017-05-12T03:42:22.068Z,4
2017-05-12T03:43:22.336Z,8
2017-05-12T03:44:22.030Z,8
2017-05-12T03:45:22.297Z,8
2017-05-12T03:46:22.304Z,8
2017-05-12T03:47:22.313Z,8
2017-05-12T03:48:22.317Z,12
2017-05-12T03:49:22.325Z,8
2017-05-12T03:50:22.331Z,12
2017-05-12T03:51:22.341Z,12
2017-05-12T03:52:22.346Z,12
2017-05-12T03:53:22.458Z,12
2017-05-12T03:54:22.049Z,16
2017-05-12T03:55:22.372Z,16
2017-05-12T03:56:22.377Z,16
2017-05-12T03:57:22.072Z,16
2017-05-12T03:58:21.771Z,16
2017-05-12T03:59:22.448Z,16
2017-05-12T04:00:22.095Z,16
2017-05-12T04:01:22.097Z,20
2017-05-12T04:02:22.104Z,20
2017-05-12T04:03:22.430Z,16
2017-05-12T04:04:22.432Z,20
2017-05-12T04:05:22.128Z,20
2017-05-12T04:06:22.129Z,20
2017-05-12T04:07:22.137Z,24
2017-05-12T04:08:22.507Z,24
2017-05-12T04:09:22.204Z,28
2017-05-12T04:10:22.159Z,32
2017-05-12T04:11:22.472Z,36
2017-05-12T04:12:22.533Z,36
2017-05-12T04:13:22.495Z,44
2017-05-12T04:14:22.499Z,48
2017-05-12T04:15:22.190Z,60
2017-05-12T04:16:22.247Z,64
2017-05-12T04:17:22.204Z,64
2017-05-12T04:18:22.253Z,64
2017-05-12T04:19:22.529Z,60
2017-05-12T04:20:22.583Z,52
2017-05-12T04:21:22.591Z,48
2017-05-12T04:22:22.240Z,44
2017-05-12T04:23:22.563Z,40
2017-05-12T04:24:22.562Z,44
2017-05-12T04:25:22.257Z,44
2017-05-12T04:26:22.625Z,44
2017-05-12T04:27:22.584Z,44
2017-05-12T04:28:22.587Z,44
2017-05-12T04:29:22.652Z,48
2017-05-12T04:30:22.036Z,48
2017-05-12T04:31:22.304Z,48
2017-05-12T04:32:22.619Z,52
2017-05-12T04:33:22.673Z,56
2017-05-12T04:34:22.633Z,52
2017-05-12T04:35:22.381Z,52
2017-05-12T04:36:22.650Z,56
2017-05-12T04:37:22.653Z,56
2017-05-12T04:38:22.653Z,56
2017-05-12T04:39:22.354Z,56
2017-05-12T04:40:22.967Z,56
2017-05-12T04:41:22.414Z,60
2017-05-12T04:42:22.373Z,60
2017-05-12T04:43:22.382Z,64
2017-05-12T04:44:22.696Z,64
2017-05-12T04:45:22.718Z,68
2017-05-12T04:46:22.398Z,72
2017-05-12T04:47:22.818Z,76
2017-05-12T04:48:22.413Z,84
2017-05-12T04:49:22.475Z,92
2017-05-12T04:50:22.151Z,96
2017-05-12T04:51:22.439Z,104
2017-05-12T04:52:22.754Z,112
2017-05-12T04:53:22.810Z,120
2017-05-12T04:54:22.867Z,128
2017-05-12T04:55:22.828Z,132
2017-05-12T04:56:22.471Z,140
2017-05-12T04:57:22.783Z,148
2017-05-12T04:58:22.477Z,156
2017-05-12T04:59:22.491Z,164
2017-05-12T05:00:22.804Z,176
2017-05-12T05:01:22.503Z,180
2017-05-12T05:02:22.512Z,188
2017-05-12T05:03:22.518Z,184
2017-05-12T05:04:22.880Z,180
2017-05-12T05:05:22.858Z,176
2017-05-12T05:06:22.843Z,176
2017-05-12T05:07:22.855Z,172
2017-05-12T05:08:22.238Z,184
2017-05-12T05:09:22.557Z,188
2017-05-12T05:10:22.566Z,196
2017-05-12T05:11:22.621Z,204
2017-05-12T05:12:22.889Z,208
2017-05-12T05:13:22.632Z,204
2017-05-12T05:14:22.589Z,200
2017-05-12T05:15:22.907Z,196
2017-05-12T05:16:22.602Z,196
2017-05-12T05:17:22.920Z,192
2017-05-12T05:18:22.931Z,196
2017-05-12T05:19:22.628Z,196
2017-05-12T05:20:22.627Z,192
2017-05-12T05:21:22.942Z,192
2017-05-12T05:22:22.954Z,192
2017-05-12T05:23:23.008Z,196
2017-05-12T05:24:22.657Z,196
2017-05-12T05:25:22.662Z,256
2017-05-12T05:26:22.991Z,284
2017-05-12T05:27:22.984Z,292
2017-05-12T05:28:22.996Z,296
2017-05-12T05:29:22.690Z,300
2017-05-12T05:30:23.093Z,304
2017-05-12T05:31:23.066Z,308
2017-05-12T05:32:23.069Z,308
2017-05-12T05:33:22.721Z,304
2017-05-12T05:34:23.133Z,308
2017-05-12T05:35:22.781Z,320
2017-05-12T05:36:22.474Z,332
2017-05-12T05:37:22.746Z,352
2017-05-12T05:38:22.491Z,376
2017-05-12T05:39:22.768Z,412
2017-05-12T05:40:22.766Z,464
2017-05-12T05:41:22.559Z,524
2017-05-12T05:42:22.780Z,592
2017-05-12T05:43:23.397Z,668
2017-05-12T05:44:23.104Z,776
2017-05-12T05:45:23.111Z,884
2017-05-12T05:46:23.116Z,912
2017-05-12T05:47:23.424Z,964
2017-05-12T05:48:22.825Z,952
2017-05-12T05:49:23.137Z,952
2017-05-12T05:50:22.832Z,820
2017-05-12T05:51:23.149Z,692
2017-05-12T05:52:22.848Z,636
2017-05-12T05:53:23.219Z,632
2017-05-12T05:54:22.548Z,620
2017-05-12T05:55:23.183Z,632
2017-05-12T05:56:23.199Z,632
2017-05-12T05:57:22.569Z,652
2017-05-12T05:58:22.900Z,660
2017-05-12T05:59:23.218Z,648
2017-05-12T06:00:22.906Z,624
2017-05-12T06:01:22.910Z,588
2017-05-12T06:02:22.917Z,564
2017-05-12T06:03:23.240Z,544
2017-05-12T06:04:22.627Z,540
2017-05-12T06:05:22.937Z,540
2017-05-12T06:06:22.952Z,548
2017-05-12T06:07:23.265Z,556
2017-05-12T06:08:23.271Z,548
2017-05-12T06:09:22.975Z,536
2017-05-12T06:10:22.708Z,532
2017-05-12T06:11:22.981Z,524
2017-05-12T06:12:22.685Z,512
2017-05-12T06:13:23.041Z,492
2017-05-12T06:14:22.999Z,468
2017-05-12T06:15:23.009Z,448
2017-05-12T06:16:22.704Z,408
2017-05-12T06:17:23.018Z,372
2017-05-12T06:18:22.713Z,356
2017-05-12T06:19:23.349Z,340
2017-05-12T06:20:23.040Z,336
2017-05-12T06:21:22.428Z,344
2017-05-12T06:22:22.743Z,356
2017-05-12T06:23:23.064Z,368
2017-05-12T06:24:22.760Z,384
2017-05-12T06:25:23.075Z,392
2017-05-12T06:26:23.082Z,392
2017-05-12T06:27:22.778Z,400
2017-05-12T06:28:23.144Z,400
2017-05-12T06:29:37.681Z,388
2017-05-12T06:30:23.470Z,368
2017-05-12T06:31:23.163Z,348
2017-05-12T06:32:23.434Z,332
2017-05-12T06:33:23.177Z,316
2017-05-12T06:34:23.146Z,320
2017-05-12T06:35:23.512Z,332
2017-05-12T06:36:23.155Z,348
2017-05-12T06:37:23.211Z,372
2017-05-12T06:38:23.169Z,408
2017-05-12T06:39:23.487Z,436
2017-05-12T06:40:23.496Z,464
2017-05-12T06:41:23.545Z,484
2017-05-12T06:42:23.503Z,508
2017-05-12T06:43:23.191Z,532
2017-05-12T06:44:23.217Z,540
2017-05-12T06:45:23.216Z,540
2017-05-12T06:46:23.534Z,544
2017-05-12T06:47:23.327Z,556
2017-05-12T06:48:23.550Z,568
2017-05-12T06:49:23.247Z,584
2017-05-12T06:50:23.561Z,592
2017-05-12T06:51:22.946Z,604
2017-05-12T06:52:23.265Z,600
2017-05-12T06:53:23.268Z,596
2017-05-12T06:54:23.589Z,592
2017-05-12T06:55:23.643Z,592
2017-05-12T06:56:23.605Z,592
2017-05-12T06:57:23.037Z,592
2017-05-12T06:58:23.670Z,596
2017-05-12T06:59:23.318Z,600
2017-05-12T07:00:23.325Z,608
2017-05-12T07:01:23.380Z,628
2017-05-12T07:02:23.433Z,660
2017-05-12T07:03:23.651Z,700
2017-05-12T07:04:23.348Z,744
2017-05-12T07:05:23.670Z,768
2017-05-12T07:06:23.370Z,800
2017-05-12T07:07:23.377Z,808
2017-05-12T07:08:23.066Z,828
2017-05-12T07:09:23.489Z,928
2017-05-12T07:10:23.391Z,1092
2017-05-12T07:11:23.712Z,1004
2017-05-12T07:12:23.458Z,1060
2017-05-12T07:13:23.109Z,984
2017-05-12T07:14:23.427Z,1000
2017-05-12T07:15:23.430Z,960
2017-05-12T07:16:23.440Z,1084
2017-05-12T07:17:23.754Z,1104
2017-05-12T07:18:23.763Z,1044
2017-05-12T07:19:23.454Z,1196
2017-05-12T07:20:23.152Z,1580
2017-05-12T07:21:23.521Z,1388
2017-05-12T07:22:23.482Z,1188
2017-05-12T07:23:23.486Z,1520
2017-05-12T07:24:23.855Z,1968
2017-05-12T07:25:23.813Z,1808
2017-05-12T07:26:23.827Z,2808
2017-05-12T07:27:23.518Z,2700
2017-05-12T07:28:23.833Z,2572
2017-05-12T07:29:23.531Z,2612
2017-05-12T07:30:23.534Z,2708
2017-05-12T07:31:23.543Z,2680
2017-05-12T07:32:23.917Z,2420
2017-05-12T07:33:23.923Z,1916
2017-05-12T07:34:23.925Z,1888
2017-05-12T07:35:23.899Z,1800
2017-05-12T07:36:23.896Z,1476
2017-05-12T07:37:23.958Z,2132
2017-05-12T07:38:23.906Z,1972
2017-05-12T07:39:23.294Z,1788
2017-05-12T07:40:23.299Z,1824
2017-05-12T07:41:23.622Z,1268
2017-05-12T07:42:23.623Z,1132
2017-05-12T07:43:23.365Z,1044
2017-05-12T07:44:23.641Z,952
2017-05-12T07:45:23.959Z,912
2017-05-12T07:46:23.654Z,856
2017-05-12T07:47:23.400Z,904
2017-05-12T07:48:23.982Z,1028
2017-05-12T07:49:23.991Z,1252
2017-05-12T07:50:23.424Z,1452
2017-05-12T07:51:24.001Z,1564
2017-05-12T07:52:23.384Z,1652
2017-05-12T07:53:23.396Z,1716
2017-05-12T07:54:23.715Z,1624
2017-05-12T07:55:24.029Z,1488
2017-05-12T07:56:24.037Z,1472
2017-05-12T07:57:24.042Z,1576
2017-05-12T07:58:23.743Z,1412
2017-05-12T07:59:23.748Z,1268
2017-05-12T08:00:23.546Z,1216
2017-05-12T08:01:24.078Z,1132
2017-05-12T08:02:24.079Z,1116
2017-05-12T08:03:23.778Z,1080
2017-05-12T08:04:24.105Z,1064
2017-05-12T08:05:23.536Z,884
2017-05-12T08:06:24.206Z,768
2017-05-12T08:07:23.548Z,748
2017-05-12T08:08:23.861Z,808
2017-05-12T08:09:23.824Z,844
2017-05-12T08:10:23.831Z,848
2017-05-12T08:11:24.144Z,848
2017-05-12T08:12:24.151Z,824
2017-05-12T08:13:23.847Z,868
2017-05-12T08:14:24.230Z,888
2017-05-12T08:15:24.176Z,932
2017-05-12T08:16:23.931Z,936
2017-05-12T08:17:24.190Z,924
2017-05-12T08:18:23.890Z,916
2017-05-12T08:19:24.206Z,852
2017-05-12T08:20:23.901Z,872
2017-05-12T08:21:23.913Z,848
2017-05-12T08:22:23.916Z,872
2017-05-12T08:23:23.931Z,888
2017-05-12T08:24:24.033Z,896
2017-05-12T08:25:24.263Z,872
2017-05-12T08:26:23.948Z,832
2017-05-12T08:27:24.318Z,784
2017-05-12T08:28:23.653Z,780
2017-05-12T08:29:24.282Z,888
2017-05-12T08:30:23.978Z,976
2017-05-12T08:31:24.310Z,948
2017-05-12T08:32:23.993Z,828
2017-05-12T08:33:24.000Z,740
2017-05-12T08:34:24.023Z,744
2017-05-12T08:35:24.328Z,728
2017-05-12T08:36:24.381Z,736
2017-05-12T08:37:24.031Z,656
2017-05-12T08:38:24.031Z,624
2017-05-12T08:39:23.735Z,660
2017-05-12T08:40:24.359Z,692
2017-05-12T08:41:24.369Z,792
2017-05-12T08:42:24.375Z,908
2017-05-12T08:43:24.386Z,948
2017-05-12T08:44:24.391Z,928
2017-05-12T08:45:24.401Z,1028
2017-05-12T08:46:24.552Z,1036
2017-05-12T08:47:24.714Z,1000
2017-05-12T08:48:24.418Z,1176
2017-05-12T08:49:23.859Z,1280
2017-05-12T08:50:24.129Z,1376
2017-05-12T08:51:24.130Z,1400
2017-05-12T08:52:24.497Z,1524
2017-05-12T08:53:24.147Z,1468
2017-05-12T08:54:24.516Z,1420
2017-05-12T08:55:24.162Z,1492
2017-05-12T08:56:24.526Z,1460
2017-05-12T08:57:24.490Z,1432
2017-05-12T08:58:24.183Z,1376
2017-05-12T08:59:24.498Z,1344
2017-05-12T09:00:23.939Z,1240
2017-05-12T09:01:24.602Z,1188
2017-05-12T09:02:24.527Z,1188
2017-05-12T09:03:24.535Z,1196
2017-05-12T09:04:24.241Z,1184
2017-05-12T09:05:24.596Z,1172
2017-05-12T09:06:24.560Z,1188
2017-05-12T09:07:24.562Z,1200
2017-05-12T09:08:24.261Z,1216
2017-05-12T09:09:23.970Z,1188
2017-05-12T09:10:24.583Z,1160
2017-05-12T09:11:24.331Z,1128
2017-05-12T09:12:24.596Z,1016
2017-05-12T09:13:24.294Z,888
2017-05-12T09:14:24.663Z,868
2017-05-12T09:15:24.307Z,888
2017-05-12T09:16:24.625Z,884
2017-05-12T09:17:24.379Z,876
2017-05-12T09:18:24.696Z,864
2017-05-12T09:19:24.649Z,928
2017-05-12T09:20:24.656Z,1016
2017-05-12T09:21:24.663Z,1104
2017-05-12T09:22:23.739Z,1128
2017-05-12T09:23:24.070Z,1128
2017-05-12T09:24:24.689Z,1216
2017-05-12T09:25:24.435Z,1240
2017-05-12T09:26:24.080Z,1244
2017-05-12T09:27:24.507Z,1248
2017-05-12T09:28:24.716Z,1256
2017-05-12T09:29:24.723Z,1212
2017-05-12T09:30:24.734Z,1156
2017-05-12T09:31:24.426Z,1024
2017-05-12T09:32:24.746Z,956
2017-05-12T09:33:24.799Z,1016
2017-05-12T09:34:24.148Z,1064
2017-05-12T09:35:24.772Z,1128
2017-05-12T09:36:24.512Z,1232
2017-05-12T09:37:24.481Z,1260
2017-05-12T09:38:24.795Z,1352
2017-05-12T09:39:24.794Z,1500
2017-05-12T09:40:24.802Z,1516
2017-05-12T09:41:24.556Z,1480
2017-05-12T09:42:24.506Z,1520
2017-05-12T09:43:24.525Z,1640
2017-05-12T09:44:24.529Z,1876
2017-05-12T09:45:24.844Z,2464
2017-05-12T09:46:24.845Z,2724
2017-05-12T09:47:24.550Z,2684
2017-05-12T09:48:24.870Z,2560
2017-05-12T09:49:24.252Z,2396
2017-05-12T09:50:24.880Z,1652
2017-05-12T09:51:24.893Z,1544
2017-05-12T09:52:24.941Z,1544
2017-05-12T09:53:24.595Z,2136
2017-05-12T09:54:24.338Z,1592
2017-05-12T09:55:24.913Z,1504
2017-05-12T09:56:24.927Z,2064
2017-05-12T09:57:24.618Z,1956
2017-05-12T09:58:24.992Z,1792
2017-05-12T09:59:24.996Z,1592
2017-05-12T10:00:24.953Z,1488
2017-05-12T10:01:24.960Z,1236
2017-05-12T10:02:24.968Z,1276
2017-05-12T10:03:24.977Z,1180
2017-05-12T10:04:24.983Z,1120
2017-05-12T10:05:25.043Z,1024
2017-05-12T10:06:24.743Z,896
2017-05-12T10:07:25.006Z,860
2017-05-12T10:08:24.389Z,876
2017-05-12T10:09:25.026Z,872
2017-05-12T10:10:24.719Z,816
2017-05-12T10:11:24.724Z,796
2017-05-12T10:12:25.043Z,804
2017-05-12T10:13:25.050Z,924
2017-05-12T10:14:25.057Z,1264
2017-05-12T10:15:24.753Z,1600
2017-05-12T10:16:25.076Z,2032
2017-05-12T10:17:24.771Z,2160
2017-05-12T10:18:25.084Z,2244
2017-05-12T10:19:24.783Z,1816
2017-05-12T10:20:24.180Z,1596
2017-05-12T10:21:25.112Z,1592
2017-05-12T10:22:24.505Z,1888
2017-05-12T10:23:25.125Z,1856
2017-05-12T10:24:25.136Z,1796
2017-05-12T10:25:25.144Z,1156
2017-05-12T10:26:24.842Z,1052
2017-05-12T10:27:25.156Z,988
2017-05-12T10:28:25.168Z,980
2017-05-12T10:29:24.861Z,920
2017-05-12T10:30:25.232Z,864
2017-05-12T10:31:25.246Z,836
2017-05-12T10:32:25.198Z,772
2017-05-12T10:33:25.204Z,704
2017-05-12T10:34:24.896Z,716
2017-05-12T10:35:25.003Z,820
2017-05-12T10:36:25.276Z,972
2017-05-12T10:37:24.924Z,1136
2017-05-12T10:38:24.928Z,1268
2017-05-12T10:39:24.950Z,1372
2017-05-12T10:40:25.254Z,1816
2017-05-12T10:41:24.959Z,1984
2017-05-12T10:42:25.269Z,2032
2017-05-12T10:43:24.656Z,2016
2017-05-12T10:44:25.350Z,1632
2017-05-12T10:45:25.340Z,1708
2017-05-12T10:46:25.325Z,1624
2017-05-12T10:47:24.994Z,1596
2017-05-12T10:48:25.007Z,1472
2017-05-12T10:49:25.012Z,1444
2017-05-12T10:50:25.332Z,1328
2017-05-12T10:51:24.768Z,1248
2017-05-12T10:52:25.346Z,1164
2017-05-12T10:53:25.044Z,1124
2017-05-12T10:54:24.786Z,1068
2017-05-12T10:55:25.113Z,1024
2017-05-12T10:56:25.060Z,1084
2017-05-12T10:57:25.173Z,1164
2017-05-12T10:58:25.442Z,1268
2017-05-12T10:59:25.448Z,1248
2017-05-12T11:00:25.142Z,1344
2017-05-12T11:01:25.416Z,1612
2017-05-12T11:02:25.418Z,1616
2017-05-12T11:03:25.116Z,1688
2017-05-12T11:04:25.488Z,1704
2017-05-12T11:05:25.494Z,1248
2017-05-12T11:06:24.879Z,1772
2017-05-12T11:07:25.198Z,1824
2017-05-12T11:08:25.266Z,1896
2017-05-12T11:09:25.470Z,1720
2017-05-12T11:10:24.866Z,1776
2017-05-12T11:11:25.539Z,1380
2017-05-12T11:12:25.236Z,1344
2017-05-12T11:13:25.192Z,1320
2017-05-12T11:14:25.200Z,1260
2017-05-12T11:15:25.520Z,1212
2017-05-12T11:16:25.531Z,1144
2017-05-12T11:17:25.570Z,1140
2017-05-12T11:18:25.541Z,1168
2017-05-12T11:19:25.336Z,1224
2017-05-12T11:20:24.935Z,1260
2017-05-12T11:21:25.614Z,1352
2017-05-12T11:22:25.572Z,1436
2017-05-12T11:23:25.577Z,1312
2017-05-12T11:24:25.279Z,1304
2017-05-12T11:25:25.597Z,1224
2017-05-12T11:26:25.291Z,1204
2017-05-12T11:27:25.303Z,1132
2017-05-12T11:28:25.309Z,1116
2017-05-12T11:29:25.675Z,988
2017-05-12T11:30:25.371Z,924
2017-05-12T11:31:25.071Z,880
2017-05-12T11:32:25.335Z,860
2017-05-12T11:33:25.390Z,824
2017-05-12T11:34:25.709Z,768
2017-05-12T11:35:25.047Z,692
2017-05-12T11:36:25.682Z,632
2017-05-12T11:37:25.686Z,584
2017-05-12T11:38:25.378Z,524
2017-05-12T11:39:25.697Z,464
2017-05-12T11:40:25.498Z,408
2017-05-12T11:41:25.406Z,360
2017-05-12T11:42:25.775Z,316
2017-05-12T11:43:25.737Z,288
2017-05-12T11:44:25.735Z,272
2017-05-12T11:45:25.480Z,264
2017-05-12T11:46:25.752Z,260
2017-05-12T11:47:25.752Z,264
2017-05-12T11:48:25.764Z,276
2017-05-12T11:49:25.465Z,296
2017-05-12T11:50:25.832Z,316
2017-05-12T11:51:25.789Z,332
2017-05-12T11:52:25.223Z,344
2017-05-12T11:53:25.852Z,360
2017-05-12T11:54:25.493Z,380
2017-05-12T11:55:25.511Z,400
2017-05-12T11:56:25.514Z,424
2017-05-12T11:57:25.829Z,524
2017-05-12T11:58:25.887Z,472
2017-05-12T11:59:25.940Z,496
2017-05-12T12:00:25.540Z,536
2017-05-12T12:01:25.912Z,572
2017-05-12T12:02:25.864Z,604
2017-05-12T12:03:26.175Z,660
2017-05-12T12:04:25.927Z,720
2017-05-12T12:05:25.625Z,804
2017-05-12T12:06:25.893Z,936
2017-05-12T12:07:26.001Z,1080
2017-05-12T12:08:25.956Z,1260
2017-05-12T12:09:25.924Z,1400
2017-05-12T12:10:25.613Z,1472
2017-05-12T12:11:25.678Z,1508
2017-05-12T12:12:25.629Z,1564
2017-05-12T12:13:25.944Z,1648
2017-05-12T12:14:25.954Z,1712
2017-05-12T12:15:26.010Z,1492
2017-05-12T12:16:25.657Z,1772
2017-05-12T12:17:25.973Z,1800
2017-05-12T12:18:25.994Z,1544
2017-05-12T12:19:25.681Z,1504
2017-05-12T12:20:26.014Z,1508
2017-05-12T12:21:25.689Z,1524
2017-05-12T12:22:25.392Z,1408
2017-05-12T12:23:25.709Z,1352
2017-05-12T12:24:25.712Z,1316
2017-05-12T12:25:25.725Z,1264
2017-05-12T12:26:26.095Z,1224
2017-05-12T12:27:26.051Z,1200
2017-05-12T12:28:26.060Z,1296
2017-05-12T12:29:26.062Z,1360
2017-05-12T12:30:26.075Z,1484
2017-05-12T12:31:25.510Z,1500
2017-05-12T12:32:25.777Z,1444
2017-05-12T12:33:26.090Z,1212
2017-05-12T12:34:26.134Z,1156
2017-05-12T12:35:26.168Z,1120
2017-05-12T12:36:26.113Z,1068
2017-05-12T12:37:26.173Z,1012
2017-05-12T12:38:26.131Z,988
2017-05-12T12:39:25.834Z,1004
2017-05-12T12:40:25.530Z,1036
2017-05-12T12:41:25.845Z,1080
2017-05-12T12:42:26.161Z,1340
2017-05-12T12:43:26.279Z,1352
2017-05-12T12:44:26.226Z,1184
2017-05-12T12:45:26.224Z,1116
2017-05-12T12:46:26.247Z,1080
2017-05-12T12:47:25.940Z,1052
2017-05-12T12:48:25.896Z,1024
2017-05-12T12:49:26.210Z,1000
2017-05-12T12:50:26.218Z,972
2017-05-12T12:51:25.936Z,956
2017-05-12T12:52:26.285Z,952
2017-05-12T12:53:26.295Z,972
2017-05-12T12:54:26.249Z,972
2017-05-12T12:55:25.951Z,972
2017-05-12T12:56:26.266Z,944
2017-05-12T12:57:26.323Z,900
2017-05-12T12:58:25.971Z,944
2017-05-12T12:59:26.286Z,1060
2017-05-12T13:00:26.295Z,1120
2017-05-12T13:01:25.994Z,1152
2017-05-12T13:02:26.307Z,1160
2017-05-12T13:03:26.004Z,1152
2017-05-12T13:04:26.322Z,1172
2017-05-12T13:05:26.329Z,1208
2017-05-12T13:06:26.048Z,1288
2017-05-12T13:07:26.035Z,1344
2017-05-12T13:08:26.370Z,1376
2017-05-12T13:09:26.361Z,1396
2017-05-12T13:10:26.368Z,1412
2017-05-12T13:11:26.427Z,1404
2017-05-12T13:12:26.389Z,1392
2017-05-12T13:13:25.822Z,1372
2017-05-12T13:14:26.148Z,1356
2017-05-12T13:15:26.422Z,1356
2017-05-12T13:16:26.092Z,1348
2017-05-12T13:17:26.474Z,1316
2017-05-12T13:18:26.426Z,1304
2017-05-12T13:19:26.532Z,1340
2017-05-12T13:20:26.139Z,1316
2017-05-12T13:21:26.455Z,1304
2017-05-12T13:22:25.839Z,1264
2017-05-12T13:23:26.205Z,1224
2017-05-12T13:24:25.851Z,1224
2017-05-12T13:25:26.248Z,1208
2017-05-12T13:26:26.489Z,1196
2017-05-12T13:27:26.498Z,1176
2017-05-12T13:28:26.505Z,1164
2017-05-12T13:29:26.209Z,1160
2017-05-12T13:30:25.897Z,1148
2017-05-12T13:31:26.323Z,1120
2017-05-12T13:32:26.536Z,1116
2017-05-12T13:33:26.238Z,1088
2017-05-12T13:34:26.238Z,1092
2017-05-12T13:35:26.300Z,1080
2017-05-12T13:36:26.673Z,1076
2017-05-12T13:37:26.579Z,1056
2017-05-12T13:38:26.324Z,1024
2017-05-12T13:39:26.588Z,1008
2017-05-12T13:40:26.302Z,984
2017-05-12T13:41:26.289Z,968
2017-05-12T13:42:26.351Z,944
2017-05-12T13:43:26.322Z,956
2017-05-12T13:44:25.998Z,876
2017-05-12T13:45:26.641Z,840
2017-05-12T13:46:26.022Z,816
2017-05-12T13:47:26.651Z,884
2017-05-12T13:48:26.655Z,804
2017-05-12T13:49:26.351Z,804
2017-05-12T13:50:26.357Z,788
2017-05-12T13:51:26.106Z,788
2017-05-12T13:52:26.692Z,820
2017-05-12T13:53:26.378Z,844
2017-05-12T13:54:26.700Z,836